Авиационная погода в Вадсё

Регион: 
Погода METAR: 
ENVD 201420Z 22010KT 9999 -RA BKN010 05/03 Q0994
Время наблюдения: 
2020-09-20T14:20:00Z
Температура C: 
5.0
Точка росы: 
3.0
Направление ветра: 
220
Скорость ветра (узлы): 
10
Метеорологическая видимость: 
6.21
Явления погоды: 
-RA
Условия полета: 
MVFR

Найти трансфер

С помощью этой формы Вы можете найти трансфер из аэропорта Авиационная погода в Вадсё в город, аэропорт или вокзал: